sensor_id;sensor_type;location;lat;lon;timestamp;temperature;humidity
336;DHT22;156;48.738;9.228;2023-09-30T00:01:02;16.60;1.00
336;DHT22;156;48.738;9.228;2023-09-30T00:03:29;16.60;1.00
336;DHT22;156;48.738;9.228;2023-09-30T00:05:56;16.50;1.00
336;DHT22;156;48.738;9.228;2023-09-30T00:08:26;16.60;1.00
336;DHT22;156;48.738;9.228;2023-09-30T00:10:53;16.50;1.00
336;DHT22;156;48.738;9.228;2023-09-30T00:13:20;16.50;1.00
336;DHT22;156;48.738;9.228;2023-09-30T00:15:47;16.50;1.00
336;DHT22;156;48.738;9.228;2023-09-30T00:18:14;16.40;1.00
336;DHT22;156;48.738;9.228;2023-09-30T00:20:41;16.40;1.00
336;DHT22;156;48.738;9.228;2023-09-30T00:23:08;16.40;1.00
336;DHT22;156;48.738;9.228;2023-09-30T00:25:36;16.40;1.00
336;DHT22;156;48.738;9.228;2023-09-30T00:28:05;16.40;1.00
336;DHT22;156;48.738;9.228;2023-09-30T00:30:32;16.30;1.00
336;DHT22;156;48.738;9.228;2023-09-30T00:35:26;16.30;1.00
336;DHT22;156;48.738;9.228;2023-09-30T00:37:53;16.30;1.00
336;DHT22;156;48.738;9.228;2023-09-30T00:40:20;16.20;1.00
336;DHT22;156;48.738;9.228;2023-09-30T00:42:49;16.20;1.00
336;DHT22;156;48.738;9.228;2023-09-30T00:45:16;16.10;1.00
336;DHT22;156;48.738;9.228;2023-09-30T00:47:43;16.10;1.00
336;DHT22;156;48.738;9.228;2023-09-30T00:50:10;16.00;1.00
336;DHT22;156;48.738;9.228;2023-09-30T00:52:40;16.00;1.00
336;DHT22;156;48.738;9.228;2023-09-30T00:55:08;16.00;1.00
336;DHT22;156;48.738;9.228;2023-09-30T00:57:37;16.00;1.00
336;DHT22;156;48.738;9.228;2023-09-30T01:00:07;16.00;1.00
336;DHT22;156;48.738;9.228;2023-09-30T01:02:38;15.90;1.00
336;DHT22;156;48.738;9.228;2023-09-30T01:05:05;15.90;1.00
336;DHT22;156;48.738;9.228;2023-09-30T01:07:33;15.90;1.00
336;DHT22;156;48.738;9.228;2023-09-30T01:10:01;15.80;1.00
336;DHT22;156;48.738;9.228;2023-09-30T01:12:28;15.90;1.00
336;DHT22;156;48.738;9.228;2023-09-30T01:14:57;15.90;1.00
336;DHT22;156;48.738;9.228;2023-09-30T01:17:26;15.80;1.00
336;DHT22;156;48.738;9.228;2023-09-30T01:19:55;15.80;1.00
336;DHT22;156;48.738;9.228;2023-09-30T01:22:25;15.80;5.80
336;DHT22;156;48.738;9.228;2023-09-30T01:24:53;15.80;8.50
336;DHT22;156;48.738;9.228;2023-09-30T01:27:20;15.70;14.20
336;DHT22;156;48.738;9.228;2023-09-30T01:29:47;15.70;17.80
336;DHT22;156;48.738;9.228;2023-09-30T01:32:15;15.70;9.70
336;DHT22;156;48.738;9.228;2023-09-30T01:34:42;15.70;2.30
336;DHT22;156;48.738;9.228;2023-09-30T01:37:09;15.60;1.00
336;DHT22;156;48.738;9.228;2023-09-30T01:39:38;15.70;1.00
336;DHT22;156;48.738;9.228;2023-09-30T01:42:05;15.60;1.00
336;DHT22;156;48.738;9.228;2023-09-30T01:44:32;15.60;1.00
336;DHT22;156;48.738;9.228;2023-09-30T01:46:59;15.70;1.00
336;DHT22;156;48.738;9.228;2023-09-30T01:49:26;15.80;1.00
336;DHT22;156;48.738;9.228;2023-09-30T01:51:53;15.80;1.00
336;DHT22;156;48.738;9.228;2023-09-30T01:54:20;15.90;1.00
336;DHT22;156;48.738;9.228;2023-09-30T01:56:48;15.90;1.00
336;DHT22;156;48.738;9.228;2023-09-30T01:59:15;15.90;1.00
336;DHT22;156;48.738;9.228;2023-09-30T02:01:43;15.90;1.00
336;DHT22;156;48.738;9.228;2023-09-30T02:04:13;15.90;1.00
336;DHT22;156;48.738;9.228;2023-09-30T02:06:40;16.00;1.00
336;DHT22;156;48.738;9.228;2023-09-30T02:09:07;15.90;1.00
336;DHT22;156;48.738;9.228;2023-09-30T02:11:34;15.90;1.00
336;DHT22;156;48.738;9.228;2023-09-30T02:14:03;15.90;1.00
336;DHT22;156;48.738;9.228;2023-09-30T02:16:31;15.80;1.00
336;DHT22;156;48.738;9.228;2023-09-30T02:18:58;15.70;1.00
336;DHT22;156;48.738;9.228;2023-09-30T02:21:25;15.70;1.00
336;DHT22;156;48.738;9.228;2023-09-30T02:23:54;15.80;1.00
336;DHT22;156;48.738;9.228;2023-09-30T02:26:21;15.80;1.00
336;DHT22;156;48.738;9.228;2023-09-30T02:28:51;15.80;1.00
336;DHT22;156;48.738;9.228;2023-09-30T02:31:19;15.60;1.00
336;DHT22;156;48.738;9.228;2023-09-30T02:33:46;15.60;1.00
336;DHT22;156;48.738;9.228;2023-09-30T02:36:13;15.50;1.00
336;DHT22;156;48.738;9.228;2023-09-30T02:38:41;15.50;1.00
336;DHT22;156;48.738;9.228;2023-09-30T02:41:09;15.50;1.00
336;DHT22;156;48.738;9.228;2023-09-30T02:43:36;15.50;1.00
336;DHT22;156;48.738;9.228;2023-09-30T02:46:04;15.40;1.00
336;DHT22;156;48.738;9.228;2023-09-30T02:48:32;15.40;1.60
336;DHT22;156;48.738;9.228;2023-09-30T02:50:59;15.40;2.40
336;DHT22;156;48.738;9.228;2023-09-30T02:53:26;15.50;1.70
336;DHT22;156;48.738;9.228;2023-09-30T02:55:53;15.50;1.00
336;DHT22;156;48.738;9.228;2023-09-30T02:58:22;15.50;1.00
336;DHT22;156;48.738;9.228;2023-09-30T03:00:49;15.50;19.60
336;DHT22;156;48.738;9.228;2023-09-30T03:03:16;15.50;17.40
336;DHT22;156;48.738;9.228;2023-09-30T03:05:44;15.50;19.50
336;DHT22;156;48.738;9.228;2023-09-30T03:08:12;15.60;13.80
336;DHT22;156;48.738;9.228;2023-09-30T03:10:39;15.60;1.00
336;DHT22;156;48.738;9.228;2023-09-30T03:13:07;15.50;1.00
336;DHT22;156;48.738;9.228;2023-09-30T03:15:34;15.40;5.70
336;DHT22;156;48.738;9.228;2023-09-30T03:18:02;15.40;11.90
336;DHT22;156;48.738;9.228;2023-09-30T03:20:30;15.30;17.50
336;DHT22;156;48.738;9.228;2023-09-30T03:22:58;15.30;17.00
336;DHT22;156;48.738;9.228;2023-09-30T03:25:26;15.30;18.10
336;DHT22;156;48.738;9.228;2023-09-30T03:27:52;15.20;22.90
336;DHT22;156;48.738;9.228;2023-09-30T03:30:19;15.20;32.10
336;DHT22;156;48.738;9.228;2023-09-30T03:32:46;15.10;41.90
336;DHT22;156;48.738;9.228;2023-09-30T03:35:14;15.10;47.60
336;DHT22;156;48.738;9.228;2023-09-30T03:37:42;15.10;49.60
336;DHT22;156;48.738;9.228;2023-09-30T03:40:11;15.10;53.40
336;DHT22;156;48.738;9.228;2023-09-30T03:42:40;15.00;53.30
336;DHT22;156;48.738;9.228;2023-09-30T03:45:08;15.00;49.10
336;DHT22;156;48.738;9.228;2023-09-30T03:47:36;14.90;47.90
336;DHT22;156;48.738;9.228;2023-09-30T03:50:04;15.00;50.80
336;DHT22;156;48.738;9.228;2023-09-30T03:52:33;15.00;54.50
336;DHT22;156;48.738;9.228;2023-09-30T03:55:01;15.00;55.70
336;DHT22;156;48.738;9.228;2023-09-30T03:57:32;14.90;58.20
336;DHT22;156;48.738;9.228;2023-09-30T04:00:00;14.90;61.30
336;DHT22;156;48.738;9.228;2023-09-30T04:02:31;14.90;65.30
336;DHT22;156;48.738;9.228;2023-09-30T04:05:00;14.90;67.30
336;DHT22;156;48.738;9.228;2023-09-30T04:07:30;14.90;62.70
336;DHT22;156;48.738;9.228;2023-09-30T04:09:57;15.00;57.90
336;DHT22;156;48.738;9.228;2023-09-30T04:12:26;15.00;50.10
336;DHT22;156;48.738;9.228;2023-09-30T04:14:55;15.00;43.60
336;DHT22;156;48.738;9.228;2023-09-30T04:17:23;15.00;39.60
336;DHT22;156;48.738;9.228;2023-09-30T04:19:52;15.00;40.30
336;DHT22;156;48.738;9.228;2023-09-30T04:22:19;15.00;40.00
336;DHT22;156;48.738;9.228;2023-09-30T04:24:51;15.10;36.70
336;DHT22;156;48.738;9.228;2023-09-30T04:27:19;15.10;40.60
336;DHT22;156;48.738;9.228;2023-09-30T04:29:47;15.30;20.50
336;DHT22;156;48.738;9.228;2023-09-30T04:32:16;15.20;11.70
336;DHT22;156;48.738;9.228;2023-09-30T04:34:43;15.30;1.90
336;DHT22;156;48.738;9.228;2023-09-30T04:37:11;15.40;1.00
336;DHT22;156;48.738;9.228;2023-09-30T04:39:39;15.30;1.00
336;DHT22;156;48.738;9.228;2023-09-30T04:42:06;15.30;1.00
336;DHT22;156;48.738;9.228;2023-09-30T04:44:36;15.30;2.10
336;DHT22;156;48.738;9.228;2023-09-30T04:47:04;15.40;2.00
336;DHT22;156;48.738;9.228;2023-09-30T04:49:32;15.40;1.00
336;DHT22;156;48.738;9.228;2023-09-30T04:51:59;15.50;1.00
336;DHT22;156;48.738;9.228;2023-09-30T04:54:26;15.60;1.00
336;DHT22;156;48.738;9.228;2023-09-30T04:56:55;15.60;1.00
336;DHT22;156;48.738;9.228;2023-09-30T04:59:22;15.70;1.00
336;DHT22;156;48.738;9.228;2023-09-30T05:01:50;15.70;1.00
336;DHT22;156;48.738;9.228;2023-09-30T05:04:17;15.70;1.00
336;DHT22;156;48.738;9.228;2023-09-30T05:06:46;15.60;1.00
336;DHT22;156;48.738;9.228;2023-09-30T05:09:13;15.70;1.00
336;DHT22;156;48.738;9.228;2023-09-30T05:11:40;15.70;1.00
336;DHT22;156;48.738;9.228;2023-09-30T05:14:06;15.70;1.00
336;DHT22;156;48.738;9.228;2023-09-30T05:16:33;15.60;1.00
336;DHT22;156;48.738;9.228;2023-09-30T05:19:00;15.60;1.00
336;DHT22;156;48.738;9.228;2023-09-30T05:21:28;15.70;1.00
336;DHT22;156;48.738;9.228;2023-09-30T05:23:56;15.80;1.00
336;DHT22;156;48.738;9.228;2023-09-30T05:26:23;15.80;1.00
336;DHT22;156;48.738;9.228;2023-09-30T05:28:50;15.80;1.00
336;DHT22;156;48.738;9.228;2023-09-30T05:31:17;15.80;1.00
336;DHT22;156;48.738;9.228;2023-09-30T05:33:44;15.70;1.00
336;DHT22;156;48.738;9.228;2023-09-30T05:36:11;15.60;1.00
336;DHT22;156;48.738;9.228;2023-09-30T05:38:39;15.60;1.00
336;DHT22;156;48.738;9.228;2023-09-30T05:41:09;15.70;1.00
336;DHT22;156;48.738;9.228;2023-09-30T05:43:37;15.80;1.00
336;DHT22;156;48.738;9.228;2023-09-30T05:46:05;15.80;1.00
336;DHT22;156;48.738;9.228;2023-09-30T05:48:32;15.90;1.00
336;DHT22;156;48.738;9.228;2023-09-30T05:50:59;15.90;1.00
336;DHT22;156;48.738;9.228;2023-09-30T05:53:27;15.90;1.00
336;DHT22;156;48.738;9.228;2023-09-30T05:55:54;15.90;1.00
336;DHT22;156;48.738;9.228;2023-09-30T05:58:23;16.00;1.00
336;DHT22;156;48.738;9.228;2023-09-30T06:00:50;15.90;1.00
336;DHT22;156;48.738;9.228;2023-09-30T06:03:17;15.80;1.00
336;DHT22;156;48.738;9.228;2023-09-30T06:05:44;15.80;1.00
336;DHT22;156;48.738;9.228;2023-09-30T06:08:11;15.80;1.00
336;DHT22;156;48.738;9.228;2023-09-30T06:10:40;15.70;1.00
336;DHT22;156;48.738;9.228;2023-09-30T06:13:08;15.60;1.00
336;DHT22;156;48.738;9.228;2023-09-30T06:15:38;15.60;1.00
336;DHT22;156;48.738;9.228;2023-09-30T06:18:07;15.40;1.00
336;DHT22;156;48.738;9.228;2023-09-30T06:20:35;15.40;1.00
336;DHT22;156;48.738;9.228;2023-09-30T06:23:02;15.40;1.10
336;DHT22;156;48.738;9.228;2023-09-30T06:25:29;15.30;3.80
336;DHT22;156;48.738;9.228;2023-09-30T06:27:58;15.30;2.70
336;DHT22;156;48.738;9.228;2023-09-30T06:30:25;15.40;10.30
336;DHT22;156;48.738;9.228;2023-09-30T06:32:56;15.40;15.10
336;DHT22;156;48.738;9.228;2023-09-30T06:35:25;15.30;12.50
336;DHT22;156;48.738;9.228;2023-09-30T06:37:52;15.40;15.60
336;DHT22;156;48.738;9.228;2023-09-30T06:40:19;15.40;13.00
336;DHT22;156;48.738;9.228;2023-09-30T06:42:46;15.40;5.70
336;DHT22;156;48.738;9.228;2023-09-30T06:45:13;15.40;1.00
336;DHT22;156;48.738;9.228;2023-09-30T06:47:41;15.40;1.00
336;DHT22;156;48.738;9.228;2023-09-30T06:50:11;15.30;4.40
336;DHT22;156;48.738;9.228;2023-09-30T06:52:43;15.30;13.50
336;DHT22;156;48.738;9.228;2023-09-30T06:55:11;15.40;8.50
336;DHT22;156;48.738;9.228;2023-09-30T06:57:40;15.40;1.00
336;DHT22;156;48.738;9.228;2023-09-30T07:00:08;15.40;1.00
336;DHT22;156;48.738;9.228;2023-09-30T07:02:35;15.40;1.00
336;DHT22;156;48.738;9.228;2023-09-30T07:05:06;15.50;1.00
336;DHT22;156;48.738;9.228;2023-09-30T07:07:35;15.40;1.00
336;DHT22;156;48.738;9.228;2023-09-30T07:10:02;15.40;1.00
336;DHT22;156;48.738;9.228;2023-09-30T07:12:30;15.40;1.00
336;DHT22;156;48.738;9.228;2023-09-30T07:15:04;15.50;1.00
336;DHT22;156;48.738;9.228;2023-09-30T07:17:32;15.50;1.00
336;DHT22;156;48.738;9.228;2023-09-30T07:19:59;15.50;1.00
336;DHT22;156;48.738;9.228;2023-09-30T07:22:26;15.50;1.00
336;DHT22;156;48.738;9.228;2023-09-30T07:24:54;15.50;1.00
336;DHT22;156;48.738;9.228;2023-09-30T07:27:21;15.50;1.00
336;DHT22;156;48.738;9.228;2023-09-30T07:29:48;15.60;1.00
336;DHT22;156;48.738;9.228;2023-09-30T07:35:20;15.60;1.00
336;DHT22;156;48.738;9.228;2023-09-30T07:38:18;15.60;1.00
336;DHT22;156;48.738;9.228;2023-09-30T07:40:59;15.30;1.00
336;DHT22;156;48.738;9.228;2023-09-30T07:43:28;15.70;1.00
336;DHT22;156;48.738;9.228;2023-09-30T07:45:56;15.70;1.00
336;DHT22;156;48.738;9.228;2023-09-30T07:48:23;15.70;1.00
336;DHT22;156;48.738;9.228;2023-09-30T07:50:50;15.70;1.00
336;DHT22;156;48.738;9.228;2023-09-30T07:53:17;15.70;1.00
336;DHT22;156;48.738;9.228;2023-09-30T07:55:44;15.80;1.00
336;DHT22;156;48.738;9.228;2023-09-30T07:58:12;15.80;1.00
336;DHT22;156;48.738;9.228;2023-09-30T08:00:40;15.90;1.00
336;DHT22;156;48.738;9.228;2023-09-30T08:03:07;16.00;1.00
336;DHT22;156;48.738;9.228;2023-09-30T08:05:33;16.00;1.00
336;DHT22;156;48.738;9.228;2023-09-30T08:08:02;16.00;1.00
336;DHT22;156;48.738;9.228;2023-09-30T08:10:29;16.10;1.00
336;DHT22;156;48.738;9.228;2023-09-30T08:16:05;16.10;1.00
336;DHT22;156;48.738;9.228;2023-09-30T08:32:17;16.80;1.00
336;DHT22;156;48.738;9.228;2023-09-30T08:34:51;16.80;1.00
336;DHT22;156;48.738;9.228;2023-09-30T08:37:27;17.10;1.00
336;DHT22;156;48.738;9.228;2023-09-30T08:39:54;17.40;1.00
336;DHT22;156;48.738;9.228;2023-09-30T08:42:26;17.30;1.00
336;DHT22;156;48.738;9.228;2023-09-30T08:45:10;17.30;1.00
336;DHT22;156;48.738;9.228;2023-09-30T08:47:55;17.00;1.00
336;DHT22;156;48.738;9.228;2023-09-30T08:50:34;16.70;1.00
336;DHT22;156;48.738;9.228;2023-09-30T08:57:15;17.20;1.00
336;DHT22;156;48.738;9.228;2023-09-30T09:00:03;17.60;1.00
336;DHT22;156;48.738;9.228;2023-09-30T09:02:34;17.80;1.00
336;DHT22;156;48.738;9.228;2023-09-30T09:08:21;18.20;99.90
336;DHT22;156;48.738;9.228;2023-09-30T09:11:00;18.30;99.90
336;DHT22;156;48.738;9.228;2023-09-30T09:23:58;18.60;99.90
336;DHT22;156;48.738;9.228;2023-09-30T09:30:17;18.40;99.90
336;DHT22;156;48.738;9.228;2023-09-30T09:35:52;18.70;1.00
336;DHT22;156;48.738;9.228;2023-09-30T09:38:52;18.90;1.00
336;DHT22;156;48.738;9.228;2023-09-30T09:41:28;19.10;1.00
336;DHT22;156;48.738;9.228;2023-09-30T09:43:59;19.00;1.00
336;DHT22;156;48.738;9.228;2023-09-30T09:46:27;18.70;1.00
336;DHT22;156;48.738;9.228;2023-09-30T09:48:55;18.70;1.00
336;DHT22;156;48.738;9.228;2023-09-30T09:51:26;18.90;99.90
336;DHT22;156;48.738;9.228;2023-09-30T09:53:53;19.10;1.00
336;DHT22;156;48.738;9.228;2023-09-30T09:56:21;19.20;1.00
336;DHT22;156;48.738;9.228;2023-09-30T09:58:50;19.10;1.00
336;DHT22;156;48.738;9.228;2023-09-30T10:01:17;19.30;1.00
336;DHT22;156;48.738;9.228;2023-09-30T10:03:44;19.10;1.00
336;DHT22;156;48.738;9.228;2023-09-30T10:06:14;18.90;10.80
336;DHT22;156;48.738;9.228;2023-09-30T10:08:49;19.10;1.00
336;DHT22;156;48.738;9.228;2023-09-30T10:11:17;19.20;1.00
336;DHT22;156;48.738;9.228;2023-09-30T10:13:52;18.80;1.00
336;DHT22;156;48.738;9.228;2023-09-30T10:16:47;18.50;1.00
336;DHT22;156;48.738;9.228;2023-09-30T10:19:19;18.50;1.00
336;DHT22;156;48.738;9.228;2023-09-30T10:22:21;18.70;1.00
336;DHT22;156;48.738;9.228;2023-09-30T10:24:53;19.00;1.00
336;DHT22;156;48.738;9.228;2023-09-30T10:27:35;19.20;1.00
336;DHT22;156;48.738;9.228;2023-09-30T10:30:17;19.30;1.00
336;DHT22;156;48.738;9.228;2023-09-30T10:33:12;19.50;1.00
336;DHT22;156;48.738;9.228;2023-09-30T10:35:47;19.60;99.90
336;DHT22;156;48.738;9.228;2023-09-30T10:38:36;19.50;99.90
336;DHT22;156;48.738;9.228;2023-09-30T10:41:07;19.70;99.90
336;DHT22;156;48.738;9.228;2023-09-30T10:54:01;20.20;99.90
336;DHT22;156;48.738;9.228;2023-09-30T11:00:12;20.80;1.00
336;DHT22;156;48.738;9.228;2023-09-30T11:02:51;20.90;1.00
336;DHT22;156;48.738;9.228;2023-09-30T11:05:18;21.10;1.00
336;DHT22;156;48.738;9.228;2023-09-30T11:07:48;21.20;1.00
336;DHT22;156;48.738;9.228;2023-09-30T11:10:17;21.20;1.00
336;DHT22;156;48.738;9.228;2023-09-30T11:12:55;21.10;1.00
336;DHT22;156;48.738;9.228;2023-09-30T11:15:23;21.30;1.00
336;DHT22;156;48.738;9.228;2023-09-30T11:21:23;20.40;1.00
336;DHT22;156;48.738;9.228;2023-09-30T11:24:13;20.30;1.00
336;DHT22;156;48.738;9.228;2023-09-30T11:26:59;20.20;1.00
336;DHT22;156;48.738;9.228;2023-09-30T11:29:51;20.00;1.00
336;DHT22;156;48.738;9.228;2023-09-30T11:32:57;20.00;1.00
336;DHT22;156;48.738;9.228;2023-09-30T11:35:32;20.00;1.00
336;DHT22;156;48.738;9.228;2023-09-30T11:38:11;19.70;1.00
336;DHT22;156;48.738;9.228;2023-09-30T11:41:14;19.60;1.00
336;DHT22;156;48.738;9.228;2023-09-30T11:44:08;19.60;1.00
336;DHT22;156;48.738;9.228;2023-09-30T11:46:51;19.50;1.00
336;DHT22;156;48.738;9.228;2023-09-30T11:50:41;19.50;1.00
336;DHT22;156;48.738;9.228;2023-09-30T11:52:54;19.60;1.00
336;DHT22;156;48.738;9.228;2023-09-30T11:55:33;19.50;1.00
336;DHT22;156;48.738;9.228;2023-09-30T12:01:43;19.20;1.00
336;DHT22;156;48.738;9.228;2023-09-30T12:04:51;19.10;1.00
336;DHT22;156;48.738;9.228;2023-09-30T12:07:35;19.10;1.00
336;DHT22;156;48.738;9.228;2023-09-30T12:10:22;19.20;1.00
336;DHT22;156;48.738;9.228;2023-09-30T12:13:08;19.30;1.00
336;DHT22;156;48.738;9.228;2023-09-30T12:15:55;19.50;1.00
336;DHT22;156;48.738;9.228;2023-09-30T12:18:28;19.70;1.00
336;DHT22;156;48.738;9.228;2023-09-30T12:21:30;19.80;1.00
336;DHT22;156;48.738;9.228;2023-09-30T12:24:22;20.10;1.00
336;DHT22;156;48.738;9.228;2023-09-30T12:26:58;20.50;1.00
336;DHT22;156;48.738;9.228;2023-09-30T12:29:46;20.60;1.00
336;DHT22;156;48.738;9.228;2023-09-30T12:43:08;21.80;1.00
336;DHT22;156;48.738;9.228;2023-09-30T12:49:48;22.30;99.90
336;DHT22;156;48.738;9.228;2023-09-30T13:38:13;21.80;99.90
336;DHT22;156;48.738;9.228;2023-09-30T13:41:30;22.50;99.90
336;DHT22;156;48.738;9.228;2023-09-30T13:44:12;22.50;99.90
336;DHT22;156;48.738;9.228;2023-09-30T13:47:02;22.10;99.90
336;DHT22;156;48.738;9.228;2023-09-30T13:49:31;22.40;99.90
336;DHT22;156;48.738;9.228;2023-09-30T13:55:10;22.70;99.90
336;DHT22;156;48.738;9.228;2023-09-30T14:07:53;20.80;99.90
336;DHT22;156;48.738;9.228;2023-09-30T14:17:34;20.50;1.00
336;DHT22;156;48.738;9.228;2023-09-30T14:20:02;20.50;1.00
336;DHT22;156;48.738;9.228;2023-09-30T14:23:40;20.60;99.90
336;DHT22;156;48.738;9.228;2023-09-30T14:25:53;20.60;1.00
336;DHT22;156;48.738;9.228;2023-09-30T14:28:40;20.30;1.00
336;DHT22;156;48.738;9.228;2023-09-30T14:31:47;20.20;1.00
336;DHT22;156;48.738;9.228;2023-09-30T14:34:20;20.50;1.00
336;DHT22;156;48.738;9.228;2023-09-30T14:36:49;20.60;99.90
336;DHT22;156;48.738;9.228;2023-09-30T14:39:46;20.60;99.90
336;DHT22;156;48.738;9.228;2023-09-30T14:43:02;20.60;99.90
336;DHT22;156;48.738;9.228;2023-09-30T14:45:49;20.70;99.90
336;DHT22;156;48.738;9.228;2023-09-30T14:48:19;20.80;99.90
336;DHT22;156;48.738;9.228;2023-09-30T15:04:42;20.90;99.90
336;DHT22;156;48.738;9.228;2023-09-30T15:08:16;20.60;99.90
336;DHT22;156;48.738;9.228;2023-09-30T15:10:29;20.40;99.90
336;DHT22;156;48.738;9.228;2023-09-30T15:13:09;20.20;1.00
336;DHT22;156;48.738;9.228;2023-09-30T15:15:44;20.10;1.00
336;DHT22;156;48.738;9.228;2023-09-30T15:18:45;20.00;1.00
336;DHT22;156;48.738;9.228;2023-09-30T15:21:12;19.90;1.00
336;DHT22;156;48.738;9.228;2023-09-30T15:23:42;19.90;1.00
336;DHT22;156;48.738;9.228;2023-09-30T15:26:09;19.90;1.00
336;DHT22;156;48.738;9.228;2023-09-30T15:28:41;19.90;1.00
336;DHT22;156;48.738;9.228;2023-09-30T15:31:10;20.00;1.00
336;DHT22;156;48.738;9.228;2023-09-30T15:33:37;19.90;1.00
336;DHT22;156;48.738;9.228;2023-09-30T15:36:09;19.90;1.00
336;DHT22;156;48.738;9.228;2023-09-30T15:38:36;19.90;1.00
336;DHT22;156;48.738;9.228;2023-09-30T15:41:06;19.90;1.00
336;DHT22;156;48.738;9.228;2023-09-30T15:43:33;19.90;1.00
336;DHT22;156;48.738;9.228;2023-09-30T15:46:02;20.00;1.00
336;DHT22;156;48.738;9.228;2023-09-30T15:48:31;20.00;1.00
336;DHT22;156;48.738;9.228;2023-09-30T15:50:58;20.00;1.00
336;DHT22;156;48.738;9.228;2023-09-30T15:53:25;19.90;1.00
336;DHT22;156;48.738;9.228;2023-09-30T15:55:55;19.80;1.00
336;DHT22;156;48.738;9.228;2023-09-30T15:58:26;19.80;1.00
336;DHT22;156;48.738;9.228;2023-09-30T16:00:54;19.80;1.00
336;DHT22;156;48.738;9.228;2023-09-30T16:03:21;19.70;1.00
336;DHT22;156;48.738;9.228;2023-09-30T16:05:50;19.70;1.00
336;DHT22;156;48.738;9.228;2023-09-30T16:08:19;19.70;1.00
336;DHT22;156;48.738;9.228;2023-09-30T16:10:58;19.80;1.00
336;DHT22;156;48.738;9.228;2023-09-30T16:13:43;19.70;1.00
336;DHT22;156;48.738;9.228;2023-09-30T16:16:10;19.80;1.00
336;DHT22;156;48.738;9.228;2023-09-30T16:18:37;19.50;1.00
336;DHT22;156;48.738;9.228;2023-09-30T16:21:04;19.50;1.00
336;DHT22;156;48.738;9.228;2023-09-30T16:23:31;19.40;1.00
336;DHT22;156;48.738;9.228;2023-09-30T16:25:58;19.20;1.00
336;DHT22;156;48.738;9.228;2023-09-30T16:28:25;19.20;1.00
336;DHT22;156;48.738;9.228;2023-09-30T16:30:53;19.10;1.00
336;DHT22;156;48.738;9.228;2023-09-30T16:33:20;19.10;1.00
336;DHT22;156;48.738;9.228;2023-09-30T16:35:50;19.00;1.00
336;DHT22;156;48.738;9.228;2023-09-30T16:38:17;18.80;1.00
336;DHT22;156;48.738;9.228;2023-09-30T16:40:46;18.70;1.00
336;DHT22;156;48.738;9.228;2023-09-30T16:43:13;18.60;1.00
336;DHT22;156;48.738;9.228;2023-09-30T16:45:41;18.50;1.00
336;DHT22;156;48.738;9.228;2023-09-30T16:48:09;18.40;1.00
336;DHT22;156;48.738;9.228;2023-09-30T16:50:36;18.40;1.00
336;DHT22;156;48.738;9.228;2023-09-30T16:53:03;18.30;1.00
336;DHT22;156;48.738;9.228;2023-09-30T16:55:33;18.20;1.00
336;DHT22;156;48.738;9.228;2023-09-30T16:58:00;18.10;1.00
336;DHT22;156;48.738;9.228;2023-09-30T17:00:27;18.10;1.00
336;DHT22;156;48.738;9.228;2023-09-30T17:02:55;18.00;1.00
336;DHT22;156;48.738;9.228;2023-09-30T17:05:23;17.90;1.00
336;DHT22;156;48.738;9.228;2023-09-30T17:07:50;17.80;1.00
336;DHT22;156;48.738;9.228;2023-09-30T17:10:17;17.70;1.00
336;DHT22;156;48.738;9.228;2023-09-30T17:12:44;17.70;1.00
336;DHT22;156;48.738;9.228;2023-09-30T17:15:11;17.60;1.00
336;DHT22;156;48.738;9.228;2023-09-30T17:17:38;17.50;1.00
336;DHT22;156;48.738;9.228;2023-09-30T17:20:07;17.50;1.00
336;DHT22;156;48.738;9.228;2023-09-30T17:22:36;17.50;1.00
336;DHT22;156;48.738;9.228;2023-09-30T17:25:04;17.40;1.00
336;DHT22;156;48.738;9.228;2023-09-30T17:27:31;17.40;1.00
336;DHT22;156;48.738;9.228;2023-09-30T17:29:58;17.30;1.00
336;DHT22;156;48.738;9.228;2023-09-30T17:32:25;17.20;18.70
336;DHT22;156;48.738;9.228;2023-09-30T17:34:52;17.10;66.30
336;DHT22;156;48.738;9.228;2023-09-30T17:37:19;17.10;93.80
336;DHT22;156;48.738;9.228;2023-09-30T17:39:47;17.00;97.50
336;DHT22;156;48.738;9.228;2023-09-30T17:42:14;16.90;99.90
336;DHT22;156;48.738;9.228;2023-09-30T17:44:42;16.90;99.90
336;DHT22;156;48.738;9.228;2023-09-30T17:47:09;16.80;99.90
336;DHT22;156;48.738;9.228;2023-09-30T17:49:37;16.80;99.90
336;DHT22;156;48.738;9.228;2023-09-30T17:52:04;16.70;99.90
336;DHT22;156;48.738;9.228;2023-09-30T17:54:31;16.60;99.90
336;DHT22;156;48.738;9.228;2023-09-30T17:57:00;16.60;99.90
336;DHT22;156;48.738;9.228;2023-09-30T17:59:27;16.50;99.90
336;DHT22;156;48.738;9.228;2023-09-30T18:01:56;16.50;99.90
336;DHT22;156;48.738;9.228;2023-09-30T18:04:23;16.40;99.90
336;DHT22;156;48.738;9.228;2023-09-30T18:06:50;16.50;99.90
336;DHT22;156;48.738;9.228;2023-09-30T18:09:17;16.40;99.90
336;DHT22;156;48.738;9.228;2023-09-30T18:11:44;16.40;99.90
336;DHT22;156;48.738;9.228;2023-09-30T18:14:13;16.40;99.90
336;DHT22;156;48.738;9.228;2023-09-30T18:16:41;16.30;99.90
336;DHT22;156;48.738;9.228;2023-09-30T18:19:12;16.30;99.90
336;DHT22;156;48.738;9.228;2023-09-30T18:21:39;16.30;99.90
336;DHT22;156;48.738;9.228;2023-09-30T18:24:06;16.30;99.90
336;DHT22;156;48.738;9.228;2023-09-30T18:26:33;16.30;99.90
336;DHT22;156;48.738;9.228;2023-09-30T18:29:01;16.20;99.90
336;DHT22;156;48.738;9.228;2023-09-30T18:31:29;16.10;99.90
336;DHT22;156;48.738;9.228;2023-09-30T18:33:56;16.10;99.90
336;DHT22;156;48.738;9.228;2023-09-30T18:36:23;16.00;99.90
336;DHT22;156;48.738;9.228;2023-09-30T18:38:51;15.90;99.90
336;DHT22;156;48.738;9.228;2023-09-30T18:41:18;15.90;99.90
336;DHT22;156;48.738;9.228;2023-09-30T18:43:46;15.80;1.00
336;DHT22;156;48.738;9.228;2023-09-30T18:46:13;15.70;1.00
336;DHT22;156;48.738;9.228;2023-09-30T18:48:42;15.70;1.00
336;DHT22;156;48.738;9.228;2023-09-30T18:51:09;15.70;1.00
336;DHT22;156;48.738;9.228;2023-09-30T18:53:38;15.60;1.00
336;DHT22;156;48.738;9.228;2023-09-30T18:56:05;15.60;1.00
336;DHT22;156;48.738;9.228;2023-09-30T18:58:33;15.60;1.00
336;DHT22;156;48.738;9.228;2023-09-30T19:01:00;15.60;1.00
336;DHT22;156;48.738;9.228;2023-09-30T19:03:27;15.50;1.00
336;DHT22;156;48.738;9.228;2023-09-30T19:05:56;15.50;1.00
336;DHT22;156;48.738;9.228;2023-09-30T19:08:24;15.40;1.00
336;DHT22;156;48.738;9.228;2023-09-30T19:10:51;15.40;1.00
336;DHT22;156;48.738;9.228;2023-09-30T19:13:18;15.30;1.00
336;DHT22;156;48.738;9.228;2023-09-30T19:15:45;15.40;1.00
336;DHT22;156;48.738;9.228;2023-09-30T19:18:12;15.40;1.00
336;DHT22;156;48.738;9.228;2023-09-30T19:20:43;15.30;1.00
336;DHT22;156;48.738;9.228;2023-09-30T19:23:14;15.30;1.00
336;DHT22;156;48.738;9.228;2023-09-30T19:25:41;15.30;1.00
336;DHT22;156;48.738;9.228;2023-09-30T19:28:08;15.20;1.00
336;DHT22;156;48.738;9.228;2023-09-30T19:30:35;15.20;1.00
336;DHT22;156;48.738;9.228;2023-09-30T19:33:02;15.20;1.00
336;DHT22;156;48.738;9.228;2023-09-30T19:35:30;15.20;1.00
336;DHT22;156;48.738;9.228;2023-09-30T19:37:57;15.10;1.00
336;DHT22;156;48.738;9.228;2023-09-30T19:40:26;15.10;1.00
336;DHT22;156;48.738;9.228;2023-09-30T19:42:52;15.10;1.00
336;DHT22;156;48.738;9.228;2023-09-30T19:45:20;15.10;1.00
336;DHT22;156;48.738;9.228;2023-09-30T19:47:48;15.10;1.00
336;DHT22;156;48.738;9.228;2023-09-30T19:50:16;15.10;1.00
336;DHT22;156;48.738;9.228;2023-09-30T19:52:43;15.10;1.00
336;DHT22;156;48.738;9.228;2023-09-30T19:55:11;15.10;1.00